Latest Weather Observations for Butlers Gorge

IDT60801

Issued at 6:31 am EST Saturday 23 May 2015 (issued every 30 minutes, with the page automatically refreshed every 10 minutes)

About weather observations | Map of weather stations | Latest weather observations for TAS | Other Formats
Station Details ID: 096003 Name: BUTLERS GORGE Lat: -42.28 Lon: 146.28 Height: 667.0 m
Data from the previous 72 hours. | See also: Recent months at Butlers Gorge
Date/Time
EST
Temp
°C
App
Temp
°C
Dew
Point
Rel
Hum
%
Delta-T
°C
Wind Press
QNH
hPa
Press
MSL
hPa
Rain
since 9 am
mm
Dir
 
Spd
km/h
Gust
km/h
Spd
kts
Gust
kts
23/06:30am -0.5 -3.5 -1.8 91 0.4 WSW 4 7 2 4 - - 0.0
23/06:00am 2.1 -1.1 0.8 91 0.5 NW 7 11 4 6 - - 0.0
23/05:30am 1.1 -2.1 0.5 96 0.2 NNW 7 15 4 8 - - 0.0
23/05:00am -0.6 -4.1 -1.2 96 0.2 ENE 7 15 4 8 - - 0.0
23/04:30am -1.3 -4.9 -2.0 95 0.2 N 7 13 4 7 - - 0.0
23/04:00am -1.6 -4.3 -2.3 95 0.2 E 2 6 1 3 - - 0.0
23/03:30am -1.8 -4.5 -2.5 95 0.2 E 2 6 1 3 - - 0.0
23/03:00am -1.2 -4.2 -1.9 95 0.2 SW 4 9 2 5 - - 0.0
23/02:30am -0.9 -3.9 -1.7 94 0.2 WSW 4 7 2 4 - - 0.0
23/02:00am 0.1 -2.4 -0.9 93 0.4 W 2 6 1 3 - - 0.0
23/01:30am 1.5 -1.7 0.8 95 0.3 WNW 7 13 4 7 - - 0.0
23/01:00am -0.5 -3.8 -1.5 93 0.3 WNW 6 9 3 5 - - 0.0
23/12:30am -0.1 -3.0 -1.2 92 0.4 W 4 9 2 5 - - 0.0
23/12:00am 0.1 -3.3 -0.9 93 0.4 W 7 13 4 7 - - 0.0
 
Date/Time
EST
Temp
°C
App
Temp
°C
Dew
Point
Rel
Hum
%
Delta-T
°C
Wind Press
QNH
hPa
Press
MSL
hPa
Rain
since 9 am
mm
Dir
 
Spd
km/h
Gust
km/h
Spd
kts
Gust
kts
22/11:30pm 1.2 -1.9 0.2 93 0.4 W 6 13 3 7 - - 0.0
22/11:00pm 1.6 -1.8 -0.5 86 0.8 NNW 7 13 4 7 - - 0.0
22/10:30pm 1.2 -1.9 -0.1 91 0.5 N 6 13 3 7 - - 0.0
22/10:00pm 3.2 0.3 1.6 89 0.7 N 6 11 3 6 - - 0.0
22/09:30pm 2.5 -0.5 0.9 89 0.6 NW 6 11 3 6 - - 0.0
22/09:00pm 2.4 -0.8 0.9 90 0.6 ENE 7 11 4 6 - - 0.0
22/08:30pm 1.2 -2.6 -0.9 86 0.8 NW 9 22 5 12 - - 0.0
22/08:00pm 0.8 -1.6 -0.5 91 0.5 WSW 2 9 1 5 - - 0.0
22/07:30pm 2.0 -0.7 0.1 87 0.7 NE 4 6 2 3 - - 0.0
22/07:00pm 3.3 0.4 1.2 86 0.8 NNW 6 13 3 7 - - 0.0
22/06:30pm 3.8 -0.1 1.2 83 1.1 W 11 20 6 11 - - 0.0
22/06:00pm 3.8 -0.2 0.7 80 1.2 WSW 11 19 6 10 - - 0.0
22/05:30pm 4.2 -0.1 0.7 78 1.4 WSW 13 32 7 17 - - 0.0
22/05:00pm 3.7 0.1 0.7 81 1.2 NNE 9 19 5 10 - - 0.0
22/04:30pm 4.7 1.5 1.0 77 1.5 W 7 20 4 11 - - 0.0
22/04:00pm 6.3 3.4 1.4 71 2.0 NNE 6 13 3 7 - - 0.0
22/03:30pm 6.5 3.0 1.4 70 2.1 NW 9 15 5 8 - - 0.0
22/03:00pm 7.3 4.2 1.4 66 2.5 WSW 7 13 4 7 - - 0.0
22/02:30pm 7.1 3.6 1.2 66 2.5 W 9 17 5 9 - - 0.0
22/02:00pm 7.3 4.3 1.8 68 2.3 W 7 17 4 9 - - 0.0
22/01:30pm 6.7 2.8 1.2 68 2.3 NW 11 19 6 10 - - 0.0
22/01:00pm 6.8 2.9 1.1 67 2.4 WNW 11 19 6 10 - - 0.0
22/12:30pm 7.5 4.8 2.4 70 2.2 W 6 17 3 9 - - 0.0
22/12:00pm 5.5 2.3 0.9 72 1.9 S 7 19 4 10 - - 0.0
22/11:30am 5.7 1.8 1.2 73 1.9 NNW 11 17 6 9 - - 0.0
22/11:00am 5.3 1.8 1.4 76 1.6 WNW 9 15 5 8 - - 0.0
22/10:30am 5.3 2.1 0.9 73 1.8 WNW 7 13 4 7 - - 0.0
22/10:00am 4.4 1.3 1.3 80 1.3 NW 7 17 4 9 - - 0.0
22/09:30am 4.0 0.4 0.7 79 1.3 NW 9 15 5 8 - - 0.0
22/09:00am 3.8 0.3 1.0 82 1.1 NNW 9 13 5 7 - - 1.0
22/08:30am 3.5 1.7 0.9 83 1.0 CALM 0 6 0 3 - - 1.0
22/08:00am 3.3 0.3 1.0 85 0.9 NNW 6 9 3 5 - - 1.0
22/07:30am 3.5 -0.1 0.6 81 1.2 NW 9 17 5 9 - - 1.0
22/07:00am 3.3 0.0 0.4 81 1.1 NW 7 13 4 7 - - 1.0
22/06:30am 3.3 -0.3 0.5 82 1.1 WNW 9 13 5 7 - - 1.0
22/06:00am 3.1 -0.1 0.8 85 0.9 NNW 7 15 4 8 - - 1.0
22/05:30am 2.9 -0.7 0.6 85 0.9 NNW 9 15 5 8 - - 1.0
22/05:00am 2.3 -0.8 1.1 92 0.5 SW 7 9 4 5 - - 1.0
22/04:30am 2.4 -0.6 0.9 90 0.6 W 6 13 3 7 - - 1.0
22/04:00am 2.1 -0.4 1.4 95 0.3 SW 4 13 2 7 - - 1.0
22/03:30am 1.9 0.1 1.2 95 0.3 CALM 0 0 0 0 - - 1.0
22/03:00am 1.8 0.0 1.2 96 0.2 CALM 0 7 0 4 - - 1.0
22/02:30am 1.7 -1.3 1.1 96 0.2 WSW 6 9 3 5 - - 1.0
22/02:00am 1.3 -0.6 0.7 96 0.2 CALM 0 0 0 0 - - 1.0
22/01:30am 1.1 -0.8 0.5 96 0.2 CALM 0 0 0 0 - - 1.0
22/01:00am 1.0 -0.9 0.4 96 0.2 CALM 0 0 0 0 - - 1.0
22/12:30am 0.4 -1.6 -0.3 95 0.3 CALM 0 0 0 0 - - 1.0
22/12:00am 0.6 -1.4 -0.1 95 0.3 CALM 0 0 0 0 - - 1.0
 
Date/Time
EST
Temp
°C
App
Temp
°C
Dew
Point
Rel
Hum
%
Delta-T
°C
Wind Press
QNH
hPa
Press
MSL
hPa
Rain
since 9 am
mm
Dir
 
Spd
km/h
Gust
km/h
Spd
kts
Gust
kts
21/11:30pm 1.2 -0.7 0.5 95 0.3 CALM 0 0 0 0 - - 1.0
21/11:00pm 1.9 0.1 1.2 95 0.3 CALM 0 0 0 0 - - 1.0
21/10:30pm 2.6 0.9 1.9 95 0.3 CALM 0 0 0 0 - - 1.0
21/10:00pm 3.3 1.7 2.4 94 0.4 CALM 0 0 0 0 - - 1.0
21/09:30pm 3.9 2.4 3.2 95 0.3 CALM 0 0 0 0 - - 1.0
21/09:00pm 4.0 2.5 3.1 94 0.4 CALM 0 0 0 0 - - 1.0
21/08:30pm 4.1 2.6 3.2 94 0.4 CALM 0 0 0 0 - - 1.0
21/08:00pm 4.3 2.9 3.4 94 0.4 CALM 0 0 0 0 - - 1.0
21/07:30pm 4.3 2.5 3.4 94 0.4 S 2 6 1 3 - - 1.0
21/07:00pm 4.4 3.0 3.5 94 0.4 CALM 0 0 0 0 - - 1.0
21/06:30pm 4.7 3.3 3.8 94 0.4 CALM 0 0 0 0 - - 1.0
21/06:00pm 4.9 3.6 3.9 93 0.4 CALM 0 6 0 3 - - 0.8
21/05:30pm 5.0 3.6 3.8 92 0.5 CALM 0 0 0 0 - - 0.6
21/05:00pm 5.2 3.9 3.9 91 0.6 CALM 0 0 0 0 - - 0.6
21/04:30pm 5.6 3.9 3.9 89 0.7 E 2 6 1 3 - - 0.6
21/04:00pm 5.8 3.4 4.1 89 0.8 ESE 6 11 3 6 - - 0.6
21/03:30pm 6.5 5.3 4.7 88 0.8 CALM 0 6 0 3 - - 0.6
21/03:00pm 6.4 3.8 4.4 87 0.9 ESE 7 11 4 6 - - 0.6
21/02:30pm 7.1 4.2 4.8 85 1.0 NNE 9 15 5 8 - - 0.6
21/02:00pm 6.3 3.8 4.6 89 0.8 ENE 7 13 4 7 - - 0.6
21/01:30pm 6.9 4.4 4.7 86 1.0 NE 7 13 4 7 - - 0.2
21/01:00pm 6.6 3.7 4.8 88 0.8 ENE 9 15 5 8 - - 0.2
21/12:30pm 6.3 3.7 4.3 87 0.9 ENE 7 9 4 5 - - 0.2
21/12:00pm 6.8 3.8 3.9 82 1.3 NE 9 13 5 7 - - 0.2
21/11:30am 6.1 3.6 3.8 85 1.0 NW 6 9 3 5 - - 0.2
21/11:00am 6.5 4.7 3.7 82 1.2 NNE 2 7 1 4 - - 0.2
21/10:30am 5.7 4.3 3.4 85 1.0 CALM 0 0 0 0 - - 0.2
21/10:00am 5.4 4.1 3.9 90 0.7 CALM 0 0 0 0 - - 0.2
21/09:30am 4.8 3.4 3.6 92 0.5 CALM 0 0 0 0 - - 0.0
21/09:00am 4.2 2.8 3.3 94 0.4 CALM 0 0 0 0 - - 0.2
21/08:30am 3.5 2.0 2.8 95 0.3 CALM 0 0 0 0 - - 0.2
21/08:00am 3.5 2.0 2.8 95 0.3 CALM 0 0 0 0 - - 0.2
21/07:30am 3.3 1.7 2.4 94 0.4 CALM 0 0 0 0 - - 0.2
21/07:00am 3.2 1.6 2.2 93 0.4 CALM 0 0 0 0 - - 0.2
21/06:30am 3.4 1.0 2.2 92 0.5 WSW 4 7 2 4 - - 0.2
21/06:00am 3.5 0.2 2.3 92 0.5 WNW 9 17 5 9 - - 0.2
21/05:30am 3.3 0.5 2.3 93 0.4 NW 6 13 3 7 - - 0.2
21/05:00am 3.0 0.9 1.8 92 0.5 E 2 6 1 3 - - 0.2
21/04:30am 3.3 0.3 1.8 90 0.6 NW 7 11 4 6 - - 0.2
21/04:00am 3.2 0.3 1.7 90 0.6 N 6 9 3 5 - - 0.2
21/03:30am 3.1 -0.3 1.6 90 0.6 NNE 9 15 5 8 - - 0.2
21/03:00am 2.9 0.8 1.6 91 0.5 SSE 2 9 1 5 - - 0.2
21/02:30am 3.0 0.1 1.4 89 0.6 NNW 6 7 3 4 - - 0.2
21/02:00am 2.7 -0.2 1.2 90 0.6 NNW 6 7 3 4 - - 0.2
21/01:30am 2.3 0.5 1.0 91 0.5 CALM 0 0 0 0 - - 0.2
21/01:00am 2.5 -0.5 0.7 88 0.7 W 6 9 3 5 - - 0.0
21/12:30am 2.4 -0.6 0.6 88 0.7 NNE 6 9 3 5 - - 0.0
21/12:00am 2.1 -1.0 0.0 86 0.8 NW 6 11 3 6 - - 0.0
 
Date/Time
EST
Temp
°C
App
Temp
°C
Dew
Point
Rel
Hum
%
Delta-T
°C
Wind Press
QNH
hPa
Press
MSL
hPa
Rain
since 9 am
mm
Dir
 
Spd
km/h
Gust
km/h
Spd
kts
Gust
kts
20/11:30pm 1.9 -1.8 -0.3 85 0.8 WNW 9 15 5 8 - - 0.0
20/11:00pm 2.3 -1.4 -0.1 84 0.9 WSW 9 17 5 9 - - 0.0
20/10:30pm 2.3 -1.4 -0.1 84 0.9 W 9 20 5 11 - - 0.0
20/10:00pm 2.3 -0.9 1.0 91 0.5 SW 7 11 4 6 - - 0.0
20/09:30pm 2.6 -1.0 0.8 88 0.7 SW 9 17 5 9 - - 0.0
20/09:00pm 3.0 -0.5 1.4 89 0.6 SW 9 17 5 9 - - 0.0
20/08:30pm 3.0 -0.4 2.0 93 0.4 WSW 9 15 5 8 - - 0.0
20/08:00pm 3.0 0.0 2.1 94 0.4 SW 7 15 4 8 - - 0.0
20/07:30pm 3.5 0.3 2.8 95 0.3 SW 9 15 5 8 - - 0.0
20/07:00pm 3.8 2.3 3.2 96 0.3 CALM 0 4 0 2 - - 0.0
20/06:30pm 3.8 1.2 3.1 95 0.3 WSW 6 11 3 6 - - 0.0
20/06:00pm 4.2 2.8 3.5 95 0.3 CALM 0 0 0 0 - - 0.0
20/05:30pm 4.6 2.1 3.7 94 0.4 WSW 6 7 3 4 - - 0.0
20/05:00pm 5.2 3.9 4.0 92 0.5 CALM 0 0 0 0 - - 0.0
20/04:30pm 6.8 4.5 4.8 87 0.9 NNW 6 7 3 4 - - 0.0
20/04:00pm 8.3 6.2 5.6 83 1.3 W 6 7 3 4 - - 0.0
20/03:30pm 8.7 6.6 6.0 83 1.3 S 6 9 3 5 - - 0.0
20/03:00pm 8.7 7.5 6.3 85 1.1 SSW 2 7 1 4 - - 0.0
20/02:30pm 8.5 6.5 6.3 86 1.1 SSE 6 11 3 6 - - 0.0
20/02:00pm 8.5 6.0 6.6 88 0.9 NE 9 13 5 7 - - 0.0
20/01:30pm 8.6 6.2 7.2 91 0.7 NE 9 11 5 6 - - 0.0
20/01:00pm 8.5 6.7 7.0 90 0.7 ENE 6 9 3 5 - - 0.0
20/12:30pm 8.1 6.0 6.7 91 0.7 ENE 7 11 4 6 - - 0.0
20/12:00pm 7.8 5.4 6.9 94 0.4 E 9 11 5 6 - - 0.0
20/11:30am 7.9 5.5 7.0 94 0.4 E 9 15 5 8 - - 0.0
20/11:00am 8.4 7.9 7.8 96 0.3 CALM 0 0 0 0 - - 0.0
20/10:30am 7.9 7.3 7.5 97 0.2 CALM 0 0 0 0 - - 0.0
20/10:00am 7.7 7.1 7.3 97 0.2 CALM 0 0 0 0 - - 0.0
20/09:30am 7.1 6.3 6.7 97 0.2 CALM 0 0 0 0 - - 0.0
20/09:00am 6.7 5.9 6.3 97 0.2 CALM 0 0 0 0 - - 2.6
20/08:30am 6.2 5.2 5.8 97 0.2 CALM 0 0 0 0 - - 2.6
20/08:00am 5.5 4.4 5.1 97 0.2 CALM 0 0 0 0 - - 2.6
20/07:30am 5.2 4.0 4.8 97 0.2 CALM 0 0 0 0 - - 2.6
20/07:00am 5.4 4.3 5.0 97 0.2 CALM 0 0 0 0 - - 2.6

Other Formats:

Comma delimited format used in spreadsheet applications
http://www.bom.gov.au/fwo/IDT60801/IDT60801.94959.axf

JavaScript Object Notation format (JSON) in row-major order
http://www.bom.gov.au/fwo/IDT60801/IDT60801.94959.json